createdAt,value
2019-05-01T00:00:15.785Z,8.80
2019-05-01T00:02:53.075Z,8.70
2019-05-01T00:05:24.746Z,8.70
2019-05-01T00:07:52.190Z,8.60
2019-05-01T00:10:20.541Z,8.70
2019-05-01T00:12:48.319Z,8.60
2019-05-01T00:15:17.371Z,8.60
2019-05-01T00:17:45.158Z,8.50
2019-05-01T00:20:14.758Z,8.50
2019-05-01T00:22:43.912Z,8.50
2019-05-01T00:25:13.406Z,8.40
2019-05-01T00:27:40.869Z,8.40
2019-05-01T00:30:11.341Z,8.30
2019-05-01T00:32:38.794Z,8.30
2019-05-01T00:35:06.270Z,8.40
2019-05-01T00:37:33.706Z,8.30
2019-05-01T00:40:20.618Z,8.40
2019-05-01T00:42:48.103Z,8.30
2019-05-01T00:45:15.512Z,8.20
2019-05-01T00:47:42.926Z,8.20
2019-05-01T00:50:10.464Z,8.20
2019-05-01T00:52:38.898Z,8.20
2019-05-01T00:55:24.708Z,8.10
2019-05-01T00:57:59.176Z,8.10
2019-05-01T01:00:43.268Z,8.10
2019-05-01T01:03:09.577Z,8.00
2019-05-01T01:05:37.022Z,8.00
2019-05-01T01:08:04.460Z,8.00
2019-05-01T01:10:31.895Z,7.90
2019-05-01T01:12:59.341Z,7.80
2019-05-01T01:15:26.806Z,7.80
2019-05-01T01:17:54.554Z,7.80
2019-05-01T01:20:21.977Z,7.70
2019-05-01T01:22:49.416Z,7.60
2019-05-01T01:25:16.827Z,7.60
2019-05-01T01:27:44.449Z,7.60
2019-05-01T01:30:12.052Z,7.60
2019-05-01T01:32:39.483Z,7.60
2019-05-01T01:35:06.922Z,7.60
2019-05-01T01:37:34.412Z,7.60
2019-05-01T01:40:02.059Z,7.50
2019-05-01T01:42:30.203Z,7.50
2019-05-01T01:45:08.567Z,7.40
2019-05-01T01:47:38.239Z,7.50
2019-05-01T01:50:06.667Z,7.50
2019-05-01T01:52:34.290Z,7.50
2019-05-01T01:55:02.129Z,7.50
2019-05-01T01:57:30.045Z,7.50
2019-05-01T01:59:57.827Z,7.40
2019-05-01T02:02:49.429Z,7.40
2019-05-01T02:05:22.969Z,7.40
2019-05-01T02:07:50.998Z,7.30
2019-05-01T02:10:18.705Z,7.20
2019-05-01T02:12:46.322Z,7.20
2019-05-01T02:15:13.770Z,7.10
2019-05-01T02:17:41.230Z,7.10
2019-05-01T02:20:08.845Z,7.00
2019-05-01T02:22:36.280Z,7.00
2019-05-01T02:25:05.311Z,7.00
2019-05-01T02:27:47.692Z,6.90
2019-05-01T02:30:16.693Z,6.90
2019-05-01T02:32:45.745Z,6.80
2019-05-01T02:35:13.280Z,6.80
2019-05-01T02:37:43.162Z,6.80
2019-05-01T02:40:47.517Z,6.80
2019-05-01T02:43:17.408Z,6.80
2019-05-01T02:45:46.783Z,6.80
2019-05-01T02:48:16.881Z,6.90
2019-05-01T02:50:47.238Z,6.80
2019-05-01T02:53:14.952Z,6.80
2019-05-01T02:55:48.270Z,6.80
2019-05-01T02:58:15.899Z,6.80
2019-05-01T03:00:43.451Z,6.80
2019-05-01T03:03:11.263Z,6.80
2019-05-01T03:05:38.834Z,6.90
2019-05-01T03:08:06.464Z,6.70
2019-05-01T03:10:34.239Z,6.80
2019-05-01T03:13:01.706Z,6.80
2019-05-01T03:15:32.074Z,6.80
2019-05-01T03:18:16.575Z,6.80
2019-05-01T03:20:56.177Z,6.80
2019-05-01T03:23:33.807Z,6.80
2019-05-01T03:26:01.873Z,6.80
2019-05-01T03:28:29.830Z,6.70
2019-05-01T03:30:57.428Z,6.70
2019-05-01T03:33:25.399Z,6.70
2019-05-01T03:35:52.963Z,6.60
2019-05-01T03:38:20.781Z,6.50
2019-05-01T03:40:48.720Z,6.50
2019-05-01T03:43:16.255Z,6.60
2019-05-01T03:45:44.056Z,6.50
2019-05-01T03:48:11.708Z,6.50
2019-05-01T03:50:39.248Z,6.40
2019-05-01T03:53:06.888Z,6.30
2019-05-01T03:55:34.422Z,6.30
2019-05-01T03:58:02.741Z,6.30
2019-05-01T04:00:48.749Z,6.30
2019-05-01T04:03:27.097Z,6.30
2019-05-01T04:05:55.043Z,6.30
2019-05-01T04:08:23.287Z,6.40
2019-05-01T04:10:50.787Z,6.30
2019-05-01T04:13:18.327Z,6.40
2019-05-01T04:15:45.786Z,6.40
2019-05-01T04:18:13.315Z,6.30
2019-05-01T04:20:41.201Z,6.40
2019-05-01T04:23:08.793Z,6.30
2019-05-01T04:25:36.304Z,6.30
2019-05-01T04:28:23.565Z,6.40
2019-05-01T04:31:10.349Z,6.30
2019-05-01T04:33:39.339Z,6.40
2019-05-01T04:36:12.845Z,6.30
2019-05-01T04:38:40.483Z,6.30
2019-05-01T04:41:08.359Z,6.30
2019-05-01T04:43:35.794Z,6.30
2019-05-01T04:46:03.428Z,6.30
2019-05-01T04:48:31.601Z,6.30
2019-05-01T04:50:59.304Z,6.40
2019-05-01T04:53:27.630Z,6.50
2019-05-01T04:55:55.259Z,6.50
2019-05-01T04:58:22.971Z,6.40
2019-05-01T05:00:50.497Z,6.60
2019-05-01T05:03:19.631Z,6.60
2019-05-01T05:05:47.477Z,6.70
2019-05-01T05:08:15.218Z,6.70
2019-05-01T05:10:43.047Z,6.70
2019-05-01T05:13:29.998Z,6.80
2019-05-01T05:16:06.451Z,6.80
2019-05-01T05:18:33.879Z,6.80
2019-05-01T05:21:01.428Z,6.80
2019-05-01T05:23:29.548Z,6.90
2019-05-01T05:25:57.181Z,7.10
2019-05-01T05:28:25.549Z,7.20
2019-05-01T05:30:55.691Z,7.20
2019-05-01T05:33:24.471Z,7.30
2019-05-01T05:35:54.079Z,7.40
2019-05-01T05:38:31.992Z,7.50
2019-05-01T05:41:00.430Z,7.50
2019-05-01T05:43:28.439Z,7.50
2019-05-01T05:45:56.244Z,7.60
2019-05-01T05:48:23.643Z,7.60
2019-05-01T05:51:25.430Z,7.60
2019-05-01T05:53:56.559Z,7.70
2019-05-01T05:56:32.062Z,7.90
2019-05-01T05:59:06.570Z,8.10
2019-05-01T06:01:43.578Z,8.20
2019-05-01T06:04:44.719Z,8.30
2019-05-01T06:07:21.676Z,8.30
2019-05-01T06:10:22.733Z,8.40
2019-05-01T06:13:10.444Z,8.40
2019-05-01T06:16:03.047Z,8.60
2019-05-01T06:18:42.658Z,8.70
2019-05-01T06:21:34.678Z,8.90
2019-05-01T06:24:14.662Z,9.00
2019-05-01T06:26:42.630Z,9.20
2019-05-01T06:29:10.171Z,9.20
2019-05-01T06:31:37.691Z,9.30
2019-05-01T06:34:05.154Z,9.40
2019-05-01T06:36:32.980Z,9.60
2019-05-01T06:39:01.496Z,9.50
2019-05-01T06:41:40.633Z,9.70
2019-05-01T06:44:12.467Z,9.70
2019-05-01T06:47:11.923Z,9.70
2019-05-01T06:50:14.180Z,9.70
2019-05-01T06:52:41.925Z,9.90
2019-05-01T06:55:09.571Z,9.90
2019-05-01T06:57:42.997Z,10.00
2019-05-01T07:00:11.030Z,10.20
2019-05-01T07:02:39.047Z,10.50
2019-05-01T07:05:13.814Z,10.80
2019-05-01T07:07:38.476Z,10.90
2019-05-01T07:10:07.042Z,11.00
2019-05-01T07:12:35.051Z,11.10
2019-05-01T07:15:03.858Z,11.20
2019-05-01T07:17:31.515Z,11.50
2019-05-01T07:20:11.889Z,11.80
2019-05-01T07:22:42.206Z,12.10
2019-05-01T07:25:07.931Z,12.30
2019-05-01T07:27:35.726Z,12.40
2019-05-01T07:30:15.966Z,12.70
2019-05-01T07:32:43.459Z,12.60
2019-05-01T07:35:11.109Z,12.80
2019-05-01T07:37:38.869Z,13.00
2019-05-01T07:40:06.889Z,13.20
2019-05-01T07:42:36.829Z,13.60
2019-05-01T07:45:30.147Z,13.80
2019-05-01T07:48:01.124Z,14.00
2019-05-01T07:50:31.529Z,14.20
2019-05-01T07:52:56.631Z,14.40
2019-05-01T07:55:36.237Z,14.90
2019-05-01T07:58:10.609Z,15.50
2019-05-01T08:01:12.991Z,15.90
2019-05-01T08:03:42.652Z,16.40
2019-05-01T08:06:10.676Z,16.20
2019-05-01T08:08:39.681Z,16.80
2019-05-01T08:11:10.165Z,17.20
2019-05-01T08:13:36.640Z,17.10
2019-05-01T08:16:07.134Z,17.20
2019-05-01T08:18:45.729Z,17.70
2019-05-01T08:21:32.675Z,17.60
2019-05-01T08:24:00.380Z,17.60
2019-05-01T08:26:27.829Z,17.60
2019-05-01T08:29:20.511Z,17.70
2019-05-01T08:31:58.916Z,18.50
2019-05-01T08:34:29.685Z,18.50
2019-05-01T08:36:56.554Z,18.60
2019-05-01T08:39:23.982Z,18.80
2019-05-01T08:41:51.477Z,18.90
2019-05-01T08:44:20.548Z,19.40
2019-05-01T08:47:12.837Z,19.70
2019-05-01T08:49:50.851Z,18.90
2019-05-01T08:52:18.421Z,18.70
2019-05-01T08:54:45.860Z,18.50
2019-05-01T08:57:13.632Z,19.00
2019-05-01T08:59:41.399Z,19.00
2019-05-01T09:02:09.959Z,19.60
2019-05-01T09:04:37.477Z,18.50
2019-05-01T09:07:05.349Z,19.30
2019-05-01T09:09:33.560Z,19.70
2019-05-01T09:12:01.223Z,19.60
2019-05-01T09:14:29.865Z,20.10
2019-05-01T09:16:57.999Z,20.10
2019-05-01T09:19:25.608Z,19.70
2019-05-01T09:21:53.058Z,20.20
2019-05-01T09:24:23.058Z,20.00
2019-05-01T09:27:09.866Z,20.00
2019-05-01T09:29:39.964Z,20.80
2019-05-01T09:32:10.109Z,20.70
2019-05-01T09:34:37.799Z,20.30
2019-05-01T09:37:05.301Z,20.90
2019-05-01T09:39:33.987Z,19.90
2019-05-01T09:42:01.907Z,20.30
2019-05-01T09:44:29.397Z,20.20
2019-05-01T09:46:56.829Z,20.90
2019-05-01T09:49:24.374Z,20.80
2019-05-01T09:52:24.839Z,20.60
2019-05-01T09:55:03.666Z,20.20
2019-05-01T09:57:31.113Z,20.00
2019-05-01T09:59:58.600Z,20.00
2019-05-01T10:02:26.040Z,20.40
2019-05-01T10:04:53.543Z,21.20
2019-05-01T10:07:23.986Z,22.00
2019-05-01T10:09:52.160Z,22.50
2019-05-01T10:12:19.901Z,21.60
2019-05-01T10:14:47.309Z,22.40
2019-05-01T10:17:14.794Z,22.20
2019-05-01T10:19:42.208Z,22.20
2019-05-01T10:22:11.270Z,22.90
2019-05-01T10:24:39.396Z,22.20
2019-05-01T10:27:09.207Z,22.00
2019-05-01T10:30:11.564Z,22.20
2019-05-01T10:32:42.188Z,22.60
2019-05-01T10:35:27.955Z,22.40
2019-05-01T10:37:55.415Z,23.50
2019-05-01T10:40:27.077Z,23.80
2019-05-01T10:42:52.120Z,24.00
2019-05-01T10:45:19.543Z,23.90
2019-05-01T10:47:47.030Z,23.90
2019-05-01T10:50:14.484Z,23.80
2019-05-01T10:52:41.957Z,23.60
2019-05-01T10:55:09.396Z,23.50
2019-05-01T10:57:40.595Z,22.80
2019-05-01T11:00:06.309Z,22.70
2019-05-01T11:02:33.825Z,21.70
2019-05-01T11:05:01.222Z,22.00
2019-05-01T11:07:28.769Z,22.40
2019-05-01T11:09:56.218Z,21.40
2019-05-01T11:12:23.629Z,21.30
2019-05-01T11:14:51.206Z,21.00
2019-05-01T11:17:18.647Z,21.60
2019-05-01T11:19:46.097Z,21.20
2019-05-01T11:22:13.514Z,21.50
2019-05-01T11:24:40.935Z,21.80
2019-05-01T11:27:08.379Z,22.00
2019-05-01T11:29:36.863Z,22.10
2019-05-01T11:32:22.721Z,22.50
2019-05-01T11:35:15.847Z,22.30
2019-05-01T11:37:54.192Z,21.00
2019-05-01T11:40:29.609Z,21.90
2019-05-01T11:42:57.445Z,21.90
2019-05-01T11:45:24.884Z,21.80
2019-05-01T11:47:52.734Z,21.60
2019-05-01T11:50:20.207Z,21.00
2019-05-01T11:52:48.140Z,21.40
2019-05-01T11:55:15.566Z,21.50
2019-05-01T11:57:43.061Z,21.20
2019-05-01T12:00:12.435Z,21.20
2019-05-01T12:02:40.458Z,21.10
2019-05-01T12:05:08.201Z,21.40
2019-05-01T12:07:35.807Z,21.70
2019-05-01T12:10:04.441Z,21.20
2019-05-01T12:12:33.675Z,21.30
2019-05-01T12:15:02.068Z,21.00
2019-05-01T12:17:35.259Z,20.90
2019-05-01T12:20:03.005Z,20.40
2019-05-01T12:22:30.461Z,20.60
2019-05-01T12:24:57.900Z,20.50
2019-05-01T12:27:26.807Z,20.90
2019-05-01T12:29:54.643Z,20.90
2019-05-01T12:32:22.492Z,20.60
2019-05-01T12:34:50.426Z,20.90
2019-05-01T12:37:37.745Z,20.40
2019-05-01T12:40:06.030Z,21.00
2019-05-01T12:42:33.987Z,21.40
2019-05-01T12:45:01.531Z,21.70
2019-05-01T12:47:54.751Z,21.90
2019-05-01T12:50:23.097Z,23.20
2019-05-01T12:53:28.330Z,24.40
2019-05-01T12:56:15.338Z,24.50
2019-05-01T12:58:47.326Z,26.10
2019-05-01T13:01:14.945Z,26.60
2019-05-01T13:03:42.726Z,26.70
2019-05-01T13:06:10.462Z,25.80
2019-05-01T13:08:37.889Z,24.50
2019-05-01T13:11:05.339Z,23.80
2019-05-01T13:13:33.063Z,24.00
2019-05-01T13:16:00.586Z,24.20
2019-05-01T13:18:29.402Z,25.70
2019-05-01T13:20:57.207Z,26.00
2019-05-01T13:23:24.671Z,26.50
2019-05-01T13:25:54.587Z,26.40
2019-05-01T13:28:45.134Z,26.70
2019-05-01T13:31:47.471Z,27.80
2019-05-01T13:34:14.960Z,26.20
2019-05-01T13:36:42.419Z,27.20
2019-05-01T13:39:11.088Z,26.40
2019-05-01T13:41:38.934Z,26.50
2019-05-01T13:44:06.965Z,27.00
2019-05-01T13:46:34.407Z,26.20
2019-05-01T13:49:02.216Z,25.50
2019-05-01T13:51:29.622Z,25.10
2019-05-01T13:53:57.025Z,24.70
2019-05-01T13:56:24.547Z,24.70
2019-05-01T13:58:51.979Z,24.00
2019-05-01T14:01:19.495Z,23.70
2019-05-01T14:03:47.006Z,23.20
2019-05-01T14:06:14.455Z,23.20
2019-05-01T14:08:41.888Z,23.20
2019-05-01T14:11:09.512Z,22.90
2019-05-01T14:13:36.945Z,23.40
2019-05-01T14:16:04.808Z,24.60
2019-05-01T14:18:32.265Z,24.80
2019-05-01T14:21:09.939Z,24.90
2019-05-01T14:23:55.338Z,25.80
2019-05-01T14:26:22.792Z,26.50
2019-05-01T14:28:50.508Z,25.60
2019-05-01T14:31:17.933Z,25.20
2019-05-01T14:33:45.342Z,24.90
2019-05-01T14:36:12.823Z,23.90
2019-05-01T14:38:40.232Z,23.90
2019-05-01T14:41:07.764Z,24.00
2019-05-01T14:43:35.264Z,24.90
2019-05-01T14:46:02.720Z,25.30
2019-05-01T14:48:30.996Z,25.40
2019-05-01T14:50:58.879Z,24.00
2019-05-01T14:53:26.291Z,23.70
2019-05-01T14:55:53.719Z,24.10
2019-05-01T14:58:21.178Z,24.50
2019-05-01T15:00:48.652Z,25.00
2019-05-01T15:03:16.097Z,26.10
2019-05-01T15:05:43.559Z,25.20
2019-05-01T15:08:10.976Z,24.60
2019-05-01T15:10:38.722Z,24.10
2019-05-01T15:13:14.135Z,24.60
2019-05-01T15:15:48.442Z,24.20
2019-05-01T15:18:24.484Z,23.30
2019-05-01T15:20:51.891Z,22.90
2019-05-01T15:23:19.365Z,22.60
2019-05-01T15:25:47.051Z,22.70
2019-05-01T15:28:14.537Z,22.50
2019-05-01T15:30:41.980Z,22.10
2019-05-01T15:33:09.437Z,21.70
2019-05-01T15:35:36.899Z,21.80
2019-05-01T15:38:04.345Z,21.90
2019-05-01T15:40:37.908Z,22.00
2019-05-01T15:43:29.341Z,22.00
2019-05-01T15:45:56.802Z,22.10
2019-05-01T15:48:24.250Z,21.90
2019-05-01T15:50:51.685Z,22.20
2019-05-01T15:53:19.174Z,22.40
2019-05-01T15:55:46.675Z,22.20
2019-05-01T15:58:14.047Z,22.30
2019-05-01T16:00:41.457Z,22.30
2019-05-01T16:03:08.903Z,22.50
2019-05-01T16:05:36.319Z,22.90
2019-05-01T16:08:09.742Z,23.50
2019-05-01T16:10:38.384Z,23.10
2019-05-01T16:13:05.834Z,23.40
2019-05-01T16:15:34.653Z,22.90
2019-05-01T16:18:02.864Z,23.70
2019-05-01T16:20:30.291Z,25.40
2019-05-01T16:22:57.739Z,25.90
2019-05-01T16:25:25.932Z,26.20
2019-05-01T16:27:53.442Z,26.80
2019-05-01T16:30:23.739Z,26.60
2019-05-01T16:32:51.222Z,27.00
2019-05-01T16:35:18.673Z,27.00
2019-05-01T16:37:46.166Z,27.50
2019-05-01T16:40:48.645Z,25.40
2019-05-01T16:43:16.086Z,23.80
2019-05-01T16:45:43.558Z,23.50
2019-05-01T16:48:11.070Z,23.90
2019-05-01T16:50:38.506Z,23.00
2019-05-01T16:53:05.978Z,24.00
2019-05-01T16:55:33.504Z,24.50
2019-05-01T16:58:00.959Z,25.00
2019-05-01T17:01:01.960Z,25.10
2019-05-01T17:03:34.831Z,24.40
2019-05-01T17:06:15.965Z,24.10
2019-05-01T17:08:50.711Z,23.20
2019-05-01T17:11:20.479Z,23.30
2019-05-01T17:13:47.927Z,23.20
2019-05-01T17:16:15.355Z,22.80
2019-05-01T17:18:42.827Z,23.20
2019-05-01T17:21:10.247Z,23.60
2019-05-01T17:23:37.714Z,23.10
2019-05-01T17:26:05.164Z,22.80
2019-05-01T17:28:32.881Z,23.40
2019-05-01T17:31:00.938Z,22.70
2019-05-01T17:33:29.033Z,22.10
2019-05-01T17:35:56.456Z,21.80
2019-05-01T17:38:24.343Z,21.80
2019-05-01T17:40:53.428Z,21.70
2019-05-01T17:43:21.015Z,21.30
2019-05-01T17:45:48.463Z,20.90
2019-05-01T17:48:15.900Z,20.30
2019-05-01T17:50:43.433Z,20.10
2019-05-01T17:53:10.844Z,19.70
2019-05-01T17:55:38.313Z,19.30
2019-05-01T17:58:05.887Z,19.20
2019-05-01T18:00:45.739Z,19.10
2019-05-01T18:03:35.179Z,18.90
2019-05-01T18:06:11.206Z,18.50
2019-05-01T18:08:38.775Z,18.40
2019-05-01T18:11:09.284Z,18.40
2019-05-01T18:13:35.464Z,18.20
2019-05-01T18:16:03.306Z,18.10
2019-05-01T18:18:31.370Z,17.90
2019-05-01T18:20:58.889Z,17.80
2019-05-01T18:23:47.733Z,17.70
2019-05-01T18:26:20.383Z,17.60
2019-05-01T18:28:55.500Z,17.50
2019-05-01T18:31:27.899Z,17.40
2019-05-01T18:34:02.568Z,17.30
2019-05-01T18:36:33.437Z,17.20
2019-05-01T18:39:16.452Z,17.10
2019-05-01T18:41:40.995Z,17.10
2019-05-01T18:44:10.167Z,17.00
2019-05-01T18:46:37.690Z,16.90
2019-05-01T18:49:05.138Z,16.80
2019-05-01T18:51:36.057Z,16.70
2019-05-01T18:54:01.931Z,16.70
2019-05-01T18:56:29.396Z,16.60
2019-05-01T18:58:56.879Z,16.50
2019-05-01T19:01:24.512Z,16.40
2019-05-01T19:03:51.989Z,16.30
2019-05-01T19:06:19.421Z,16.30
2019-05-01T19:08:46.923Z,16.30
2019-05-01T19:11:14.744Z,16.20
2019-05-01T19:13:42.243Z,16.10
2019-05-01T19:16:09.896Z,16.00
2019-05-01T19:18:37.508Z,16.00
2019-05-01T19:21:05.161Z,15.90
2019-05-01T19:23:33.363Z,15.90
2019-05-01T19:26:05.529Z,15.80
2019-05-01T19:28:30.312Z,15.60
2019-05-01T19:30:57.761Z,15.50
2019-05-01T19:33:25.290Z,15.40
2019-05-01T19:35:52.782Z,15.40
2019-05-01T19:38:20.907Z,15.40
2019-05-01T19:40:48.347Z,15.30
2019-05-01T19:43:15.832Z,15.10
2019-05-01T19:45:43.352Z,14.90
2019-05-01T19:48:10.796Z,14.90
2019-05-01T19:50:39.960Z,14.80
2019-05-01T19:53:10.152Z,14.70
2019-05-01T19:55:40.003Z,14.70
2019-05-01T19:58:06.505Z,14.60
2019-05-01T20:00:57.509Z,14.40
2019-05-01T20:03:30.554Z,14.40
2019-05-01T20:05:59.506Z,14.30
2019-05-01T20:08:25.500Z,14.10
2019-05-01T20:10:55.069Z,14.00
2019-05-01T20:13:22.468Z,14.00
2019-05-01T20:15:49.911Z,13.90
2019-05-01T20:18:17.392Z,13.90
2019-05-01T20:20:44.878Z,13.80
2019-05-01T20:23:12.315Z,13.70
2019-05-01T20:25:39.760Z,13.60
2019-05-01T20:28:07.271Z,13.60
2019-05-01T20:30:34.756Z,13.50
2019-05-01T20:33:02.438Z,13.50
2019-05-01T20:35:34.173Z,13.40
2019-05-01T20:38:00.750Z,13.30
2019-05-01T20:40:28.187Z,13.20
2019-05-01T20:42:55.667Z,13.00
2019-05-01T20:45:23.154Z,13.00
2019-05-01T20:47:50.583Z,13.00
2019-05-01T20:50:18.170Z,12.80
2019-05-01T20:52:45.645Z,12.70
2019-05-01T20:55:13.521Z,12.70
2019-05-01T20:57:42.825Z,12.60
2019-05-01T21:00:11.391Z,12.60
2019-05-01T21:02:43.141Z,12.60
2019-05-01T21:05:27.928Z,12.50
2019-05-01T21:08:08.457Z,12.60
2019-05-01T21:10:50.599Z,12.60
2019-05-01T21:13:17.820Z,12.50
2019-05-01T21:15:47.252Z,12.40
2019-05-01T21:18:14.905Z,12.30
2019-05-01T21:20:43.910Z,12.30
2019-05-01T21:23:11.784Z,12.20
2019-05-01T21:25:39.236Z,12.10
2019-05-01T21:28:06.788Z,12.10
2019-05-01T21:30:38.679Z,12.10
2019-05-01T21:33:10.024Z,12.10
2019-05-01T21:35:34.117Z,11.90
2019-05-01T21:38:01.637Z,11.90
2019-05-01T21:40:38.697Z,11.90
2019-05-01T21:42:58.536Z,11.80
2019-05-01T21:45:26.030Z,11.70
2019-05-01T21:47:53.477Z,11.70
2019-05-01T21:50:24.962Z,11.60
2019-05-01T21:52:50.217Z,11.50
2019-05-01T21:55:17.647Z,11.50
2019-05-01T21:57:45.087Z,11.60
2019-05-01T22:00:13.031Z,11.50
2019-05-01T22:02:41.644Z,11.40
2019-05-01T22:05:09.855Z,11.40
2019-05-01T22:07:37.306Z,11.40
2019-05-01T22:10:05.770Z,11.40
2019-05-01T22:12:33.496Z,11.30
2019-05-01T22:15:06.238Z,11.40
2019-05-01T22:17:41.411Z,11.30
2019-05-01T22:20:10.466Z,11.30
2019-05-01T22:22:48.619Z,11.20
2019-05-01T22:25:23.249Z,11.20
2019-05-01T22:27:55.963Z,11.20
2019-05-01T22:30:31.496Z,11.10
2019-05-01T22:32:59.209Z,11.00
2019-05-01T22:35:39.580Z,11.00
2019-05-01T22:38:07.955Z,10.90
2019-05-01T22:41:05.385Z,10.80
2019-05-01T22:43:22.310Z,10.80
2019-05-01T22:45:49.753Z,10.80
2019-05-01T22:48:17.195Z,10.80
2019-05-01T22:50:45.064Z,10.80
2019-05-01T22:53:12.979Z,10.80
2019-05-01T22:55:41.786Z,10.70
2019-05-01T22:58:09.257Z,10.60
2019-05-01T23:00:42.444Z,10.50
2019-05-01T23:03:16.285Z,10.50
2019-05-01T23:05:43.741Z,10.40
2019-05-01T23:08:11.211Z,10.40
2019-05-01T23:10:41.969Z,10.40
2019-05-01T23:13:08.030Z,10.30
2019-05-01T23:15:35.456Z,10.20
2019-05-01T23:18:02.935Z,10.20
2019-05-01T23:20:30.371Z,10.20
2019-05-01T23:22:57.840Z,10.10
2019-05-01T23:25:25.277Z,10.00
2019-05-01T23:27:52.752Z,10.00
2019-05-01T23:30:21.809Z,9.90
2019-05-01T23:32:49.248Z,9.90
2019-05-01T23:35:16.718Z,9.80
2019-05-01T23:37:44.145Z,9.80
2019-05-01T23:40:15.493Z,9.80
2019-05-01T23:42:43.250Z,9.80
2019-05-01T23:45:10.537Z,9.90
2019-05-01T23:47:37.983Z,9.80
2019-05-01T23:50:05.774Z,9.70
2019-05-01T23:52:33.975Z,9.70
2019-05-01T23:55:02.684Z,9.70
2019-05-01T23:57:30.150Z,9.60
2019-05-01T23:59:57.592Z,9.60
